Andersontown, Pennsylvania
Current Conditions -  °F | °C
As of 6:56 AM on Wednesday 28 Jan 2015 (Local Time) from KCXY Reporting Station
Clear Clear  
Wind Chill:   Ceiling: Unl
Heat Index: 18°   Visibility: 10mi
Dew Point:   Wind: 10mph
Humidity: 50%   Direction: 290°WNW
Pressure: 30.14"   Gusts: NA
Location:  40.208°N, 77.0098°W
Report Text: KCXY 281156Z 29009KT 10SM CLR M08/M17 A3014 RMK AO2 SLP212 T10781167 11061 21083 53024
Loading
Personal Weather Stations






























Interactive Weather Map New forecast layout! Learn more

10-Day Weather Forecast

Advertisements
Track Severe Weather on mobile